Jump to content


AMERICAN AIRLINES FLIGHT AA1724 FLOWN ON 09-11-2017 BY CAPTAIN JIM BOERMAN

Pilot StatsCaptain Jim Boerman (LDP136) • 4,578.9 total hours • 1,395 total flights [View Logbook]
FLIGHT DETAILS
StatusReceived and approved on 2017-09-11 at 15:09:13
Origin AirportDallas-Ft Worth Intl (KDFW) • Dallas-Ft Worth, Texas, United States (607 feet MSL)
Filed Flight PlanFLIGHT PLANNER OFFLINE
Destination AirportCharleston AFB-Intl (KCHS) • Charleston, South Carolina, United States (45 feet MSL)
Alternate AirportColumbia Metro (KCAE) • Columbia, South Carolina, United States (236 feet MSL)
AirlineAmerican Airlines
AircraftAirbus A319 (319 / A319)
FS Aircraft UsedFeelthere A319 CFM American Airlines
Cruising AltitudeFL330
Distance Flown856 nautical miles
Passengers Onboard44 passengers (35.48% full)
DEPARTURE DETAILS
Time Out11:25:10
Taxi Data136,479 lbs total with 20,990 lbs of fuel onboard
Takeoff Data11:52:51 (28 minutes after leaving gate/ramp) • 134,565 lbs total • 6° pitch at 149 knots
Departure METARKDFW 111453Z VRB03KT 10SM BKN065 24/14 A3015 RMK AO2 SLP202 T02390139 53010
ARRIVAL DETAILS
Landing Data15:09:42 • 123,204 lbs total • 0° pitch doing 133 knots at a rate of -289.89 feet/minute with 7,199 lbs of fuel onboard
Time In15:18:45 (9 minutes after landing)
Ramp Weight122,688 lbs total
Total Fuel Used13,791 lbs
Total Block Time02:49:16 (2.8 hours) while 37 minutes were spent on the ground
Arrival METARKCHS 111901Z 11030G42KT 1SM R15/1600VP6000FT -RA BR BKN008 OVC015 24/24 A2967 RMK AO2 PK WND 11042/1900 WSHFT 1844 P0018 T02390239 $
MISCELLANEOUS DETAILS
LiveDISPATCH Version4.8.3.1
FS Version
FSUIPC Version4.93
OS VersionWindows 7 32-bit
Screen Resolution1920 x 1080
Pilot's CommentsNo Comments Reported
FLIGHT MAP